Stowell, TX (77661)

5:06 PM CST on February 28, 2015 (GMT -0600)
RAWS ANAHUAC TX US | Change Station
CLOSE
Current Station
Personal Weather Station
Location: High Island, TX
Elevation: 4 ft
Nearby Weather Stations

Elev 4 ft 29.67 °N, 94.44 °W | Updated 54 minutes ago

Mostly Cloudy
Mostly Cloudy
56 °F
Feels Like 56 °F
N
14
Wind Variable Wind from ENE
Gusts 23.0 mph

Today
High -- | Low -- °F
--% Chance of Precip.
Yesterday
High -- | Low -- °F
Precip. -- in
6:44 AM 6:15 PM
Waxing Gibbous, 80% visible
Pressure 30.23 in
Visibility 10.0 miles
Clouds Overcast 3100 ft
Dew Point 47 °F
Humidity 73%
Rainfall 0.00 in
Snow Depth Not available.
UV 0 out of 12
Pollen 8.90 out of 12
Air Quality Not available.
Flu Activity Not available.
METAR KBMT 282255Z AUTO 08006KT 10SM OVC031 14/07 A3023 RMK AO2 T01350073

More Conditions Fewer Conditions

Pressure 30.23 in
Visibility 10.0 miles
Clouds Overcast 3100 ft
Dew Point 47 °F
Humidity 73%
Rainfall 0.00 in
Snow Depth Not available.
UV 0 out of 12
Pollen 8.90 out of 12
Air Quality Not available.
Flu Activity Not available.
METAR KBMT 282255Z AUTO 08006KT 10SM OVC031 14/07 A3023 RMK AO2 T01350073

More Conditions Fewer Conditions

10-Day Weather Forecast

Almanac

Astronomy

Feb. 28, 2015 Rise Set
Actual Time
Civil Twilight
Nautical Twilight
Astronomical Twilight
Moon
Length of Visible Light
Length of Day
Tomorrow will be .
, % of the Moon is Illuminated

Today's Extremes

State Highs State Lows

Community

WunderPhotos

Upload Photos

1,801,160 photos uploaded!

WunderBlogs® & News

Nearby

Air Quality

  Air Quality AQ Index Pollutant
Not available.

Snow Depth

Station Depth Elevation

Earthquake Activity

City Distance Mag. Time & Date
Minimum magnitude displayed is 2.5.

Coastal Water Temperatures

Place Temperature

Nearby Weather Stations